createdAt,value
2018-11-07T00:01:29.492Z,16.9
2018-11-07T00:06:37.852Z,16.9
2018-11-07T00:11:45.999Z,16.8
2018-11-07T00:27:10.772Z,16.7
2018-11-07T00:32:19.037Z,16.5
2018-11-07T00:37:27.327Z,16.5
2018-11-07T00:42:35.581Z,16.4
2018-11-07T00:47:43.860Z,16.3
2018-11-07T00:52:52.158Z,16.2
2018-11-07T00:58:00.440Z,16
2018-11-07T01:03:08.747Z,16
2018-11-07T01:08:17.041Z,15.9
2018-11-07T01:13:25.274Z,15.8
2018-11-07T01:18:33.663Z,15.7
2018-11-07T01:23:42.020Z,15.6
2018-11-07T01:28:50.320Z,15.4
2018-11-07T01:33:58.639Z,15.3
2018-11-07T01:39:06.968Z,15.3
2018-11-07T01:44:15.289Z,15.3
2018-11-07T01:54:32.009Z,15.1
2018-11-07T02:04:48.747Z,14.9
2018-11-07T02:09:57.111Z,14.8
2018-11-07T02:15:05.469Z,14.8
2018-11-07T02:20:13.763Z,14.7
2018-11-07T02:25:22.229Z,14.7
2018-11-07T02:30:30.644Z,14.7
2018-11-07T02:35:39.183Z,14.7
2018-11-07T02:40:47.452Z,14.7
2018-11-07T02:45:55.889Z,14.7
2018-11-07T02:56:12.673Z,14.8
2018-11-07T03:01:21.058Z,14.9
2018-11-07T03:06:29.468Z,15
2018-11-07T03:11:37.850Z,15.1
2018-11-07T03:16:46.239Z,15.1
2018-11-07T03:21:54.617Z,15.1
2018-11-07T03:37:19.654Z,15.2
2018-11-07T03:47:36.411Z,15.3
2018-11-07T03:52:44.789Z,15.3
2018-11-07T03:57:53.136Z,15.4
2018-11-07T04:03:01.478Z,15.4
2018-11-07T04:13:18.200Z,15.6
2018-11-07T04:18:26.527Z,15.6
2018-11-07T04:28:43.192Z,15.8
2018-11-07T04:33:51.596Z,15.8
2018-11-07T04:38:59.867Z,15.8
2018-11-07T04:44:08.196Z,15.9
2018-11-07T04:49:16.539Z,15.9
2018-11-07T04:54:24.875Z,15.9
2018-11-07T04:59:33.170Z,16
2018-11-07T05:04:41.484Z,16
2018-11-07T05:20:06.263Z,16
2018-11-07T05:30:22.981Z,16.1
2018-11-07T05:35:31.272Z,16
2018-11-07T05:40:39.536Z,16.1
2018-11-07T05:45:47.818Z,16.1
2018-11-07T05:56:04.431Z,16.1
2018-11-07T06:01:12.712Z,16.2
2018-11-07T06:06:21.009Z,16.3
2018-11-07T06:11:29.187Z,16.4
2018-11-07T06:16:37.453Z,16.4
2018-11-07T06:21:45.775Z,16.3
2018-11-07T06:26:53.998Z,16.5
2018-11-07T06:32:02.158Z,16.5
2018-11-07T06:37:10.467Z,16.5
2018-11-07T06:42:18.728Z,16.7
2018-11-07T06:47:26.962Z,16.7
2018-11-07T06:52:35.161Z,16.8
2018-11-07T06:57:43.438Z,16.8
2018-11-07T07:02:51.589Z,16.9
2018-11-07T07:13:08.052Z,17.1
2018-11-07T07:18:16.342Z,17.3
2018-11-07T07:23:24.569Z,17.5
2018-11-07T07:28:32.733Z,17.9
2018-11-07T07:33:40.888Z,18.4
2018-11-07T07:38:49.017Z,19
2018-11-07T07:43:57.090Z,19.8
2018-11-07T07:49:05.105Z,20.5
2018-11-07T07:54:13.101Z,21.1
2018-11-07T07:59:21.033Z,21.6
2018-11-07T08:04:28.945Z,21.9
2018-11-07T08:09:36.739Z,22.5
2018-11-07T08:14:44.550Z,22.9
2018-11-07T08:19:52.440Z,23.3
2018-11-07T08:25:00.167Z,23.4
2018-11-07T08:30:07.988Z,23.8
2018-11-07T08:35:15.813Z,24.2
2018-11-07T08:40:23.523Z,24.5
2018-11-07T08:45:31.193Z,24.7
2018-11-07T09:06:01.807Z,27.7
2018-11-07T09:11:09.198Z,29.1
2018-11-07T09:21:23.896Z,31.8
2018-11-07T09:26:31.152Z,33
2018-11-07T09:31:38.432Z,34.1
2018-11-07T09:41:52.583Z,35.8
2018-11-07T09:46:59.616Z,36.5
2018-11-07T09:52:06.607Z,37
2018-11-07T09:57:13.526Z,37.7
2018-11-07T10:02:20.372Z,38.2
2018-11-07T10:07:27.285Z,38.8
2018-11-07T10:12:34.193Z,39.2
2018-11-07T10:17:40.972Z,39.6
2018-11-07T10:22:47.745Z,40.1
2018-11-07T10:27:54.570Z,40.5
2018-11-07T10:43:14.797Z,41.5
2018-11-07T10:53:28.143Z,42.1
2018-11-07T10:58:34.792Z,42.3
2018-11-07T11:03:41.439Z,42.5
2018-11-07T11:08:50.889Z,42.6
2018-11-07T11:13:54.699Z,42.9
2018-11-07T11:19:01.178Z,43
2018-11-07T11:24:08.022Z,43.2
2018-11-07T11:29:14.407Z,43.2
2018-11-07T11:34:21.191Z,43.3
2018-11-07T11:39:29.469Z,43.2
2018-11-07T11:49:40.610Z,43.1
2018-11-07T11:54:47.287Z,43.2
2018-11-07T11:59:53.897Z,42.8
2018-11-07T12:10:07.055Z,41.5
2018-11-07T12:25:27.286Z,40.6
2018-11-07T12:30:33.937Z,40.7
2018-11-07T12:35:40.695Z,40.7
2018-11-07T12:45:54.153Z,40
2018-11-07T12:51:00.978Z,39.1
2018-11-07T12:56:07.765Z,38.5
2018-11-07T13:01:14.697Z,37.8
2018-11-07T13:16:35.472Z,36.5
2018-11-07T13:21:42.374Z,36.2
2018-11-07T13:26:49.480Z,35.6
2018-11-07T13:37:03.516Z,34.3
2018-11-07T13:42:10.674Z,33.7
2018-11-07T13:47:17.740Z,33.1
2018-11-07T13:52:24.996Z,32.5
2018-11-07T14:12:54.148Z,30.6
2018-11-07T14:18:01.469Z,30.3
2018-11-07T14:23:08.733Z,29.9
2018-11-07T14:28:16.205Z,29.5
2018-11-07T14:33:23.539Z,29.2
2018-11-07T14:38:30.990Z,28.9
2018-11-07T14:43:38.506Z,28.6
2018-11-07T14:48:45.987Z,28.4
2018-11-07T14:53:53.377Z,28.2
2018-11-07T14:59:01.016Z,28
2018-11-07T15:09:15.916Z,27.6
2018-11-07T15:14:23.551Z,27.4
2018-11-07T15:19:31.060Z,27.2
2018-11-07T15:24:38.668Z,26.9
2018-11-07T15:29:46.246Z,26.8
2018-11-07T15:34:53.856Z,26.6
2018-11-07T15:50:16.757Z,26
2018-11-07T15:55:24.429Z,25.7
2018-11-07T16:00:32.163Z,25.4
2018-11-07T16:05:39.808Z,25.3
2018-11-07T16:10:47.533Z,25
2018-11-07T16:15:55.203Z,24.8
2018-11-07T16:26:10.772Z,24.4
2018-11-07T16:31:18.586Z,24.4
2018-11-07T16:36:26.371Z,24.2
2018-11-07T16:41:34.161Z,24
2018-11-07T16:46:41.859Z,23.9
2018-11-07T16:51:49.751Z,23.7
2018-11-07T17:02:05.407Z,23.6
2018-11-07T17:07:13.163Z,23.5
2018-11-07T17:12:21.079Z,23.4
2018-11-07T17:32:52.512Z,23.3
2018-11-07T17:38:00.331Z,23.3
2018-11-07T17:43:08.208Z,23.3
2018-11-07T17:48:15.967Z,23.2
2018-11-07T17:53:23.920Z,23
2018-11-07T17:58:31.890Z,22.9
2018-11-07T18:08:47.556Z,22.7
2018-11-07T18:13:55.431Z,22.4
2018-11-07T18:24:11.246Z,22.2
2018-11-07T18:29:21.954Z,22.1
2018-11-07T18:34:26.984Z,22.2
2018-11-07T18:39:35.026Z,22
2018-11-07T18:44:42.828Z,21.9
2018-11-07T18:54:58.833Z,21.8
2018-11-07T19:00:06.829Z,21.7
2018-11-07T19:10:22.789Z,21.4
2018-11-07T19:20:38.651Z,21.2
2018-11-07T19:25:46.722Z,21.3
2018-11-07T19:30:54.726Z,21.3
2018-11-07T19:36:02.731Z,21.3
2018-11-07T19:41:10.705Z,21.2
2018-11-07T19:46:18.729Z,21.2
2018-11-07T20:01:42.656Z,21.2
2018-11-07T20:06:50.575Z,21.1
2018-11-07T20:11:58.685Z,21.1
2018-11-07T20:22:14.622Z,21.1
2018-11-07T20:27:22.644Z,20.9
2018-11-07T20:32:30.579Z,21
2018-11-07T20:37:38.565Z,21
2018-11-07T20:42:46.552Z,21
2018-11-07T20:53:02.524Z,21
2018-11-07T20:58:10.443Z,21
2018-11-07T21:03:18.505Z,21
2018-11-07T21:08:26.482Z,21
2018-11-07T21:18:42.446Z,21
2018-11-07T21:23:50.435Z,21.1
2018-11-07T21:28:58.492Z,21.1
2018-11-07T21:34:06.382Z,21.1
2018-11-07T21:39:14.346Z,21.1
2018-11-07T21:44:22.243Z,21
2018-11-07T21:49:30.293Z,21.1
2018-11-07T21:59:46.268Z,21.2
2018-11-07T22:04:54.271Z,21.1
2018-11-07T22:10:02.281Z,21.1
2018-11-07T22:25:26.221Z,21
2018-11-07T22:40:50.224Z,20.9
2018-11-07T22:45:58.192Z,20.9
2018-11-07T22:51:06.193Z,20.9
2018-11-07T22:56:14.132Z,20.9
2018-11-07T23:01:22.171Z,20.8
2018-11-07T23:06:30.116Z,20.8
2018-11-07T23:11:38.105Z,20.8
2018-11-07T23:16:46.220Z,20.8
2018-11-07T23:21:54.145Z,20.7
2018-11-07T23:32:10.224Z,20.6
2018-11-07T23:47:34.365Z,20.5
2018-11-07T23:52:42.406Z,20.5
2018-11-07T23:57:50.448Z,20.4
